Tiempo atmosférico en la estación meteorológica de Cuenca, Cuenca (945 m.)

Fecha
DESCASC
Temp. máxima en grados centígrados (hora)
DESCASC
Temp. mínima en grados centígrados (hora)
DESCASC
Temp. media en grados centígrados
DESCASC
Racha de viento máxima en m/sg (hora)
DESCASC
Velocidad máxima media en intervalos de 10 minutos(hora)
DESCASC
Precipitaciones diarias en mm
DESCASC
Precipitaciones de 00:00 a 06:00 en mm
DESCASC
Precipitaciones de 06:00 a 12:00 en mm
DESCASC
Precipitaciones de 12:00 a 18:00 en mm
DESCASC
Precipitaciones de 18:00 a 24:00 en mm
DESCASC
14-12-2017 8.2 (23:00) 3.6 (08:10) 5.9 7.78 (23:50) 3.06 (23:20) 0.8 0 0 0 0.8
13-12-2017 9.5 (15:20) -3.4 (08:00) 3 5 (16:20) 2.22 (15:20) 0 0 0 0 0
12-12-2017 7.7 (15:10) -0.4 (08:40) 3.6 8.89 (06:30) 3.33 (13:40) 0 0 0 0 0
11-12-2017 9.3 (05:30) 3.6 (20:10) 6.5 17.22 (05:40) 6.67 (04:20) 12.4 4 8 0 0.4
10-12-2017 9.4 (00:00) 7.5 (00:00) 8.4 11.67 (22:50) 4.72 (17:10) 0.8 0 0 0.2 0.6
09-12-2017 9.4 (23:59) 3.5 (00:00) 6.4 3.89 (11:30) 2.22 (07:40) 1 1 0 0 0
08-12-2017 12.4 (13:50) -0.3 (00:00) 6 7.5 (14:10) 3.61 (14:00) 0 0 0 0 0
07-12-2017 12 (16:50) -3.8 (-00:0) 4.1 4.17 (20:50) 2.22 (20:50) 0 0 0 0 0
06-12-2017 14.6 (15:50) -5.2 (-00:0) 4.7 3.33 (13:40) 1.94 (13:40) 0 0 0 0 0
05-12-2017 14.7 (15:50) -4.6 (-00:0) 5 3.06 (15:10) 1.67 (13:50) 0 0 0 0 0
04-12-2017 11.5 (15:40) -4.2 (-00:0) 3.7 3.61 (19:10) 2.22 (21:00) 0 0 0 0 0
03-12-2017 9 (14:40) -3.5 (-00:0) 2.8 7.22 (03:40) 3.33 (15:40) 0 0 0 0 0
02-12-2017 5.3 (14:30) -3.3 (-00:0) 1 12.5 (21:40) 3.61 (12:00) 0 0 0 0 0
01-12-2017 5 (12:00) -2.9 (-00:0) 1 10 (16:10) 3.89 (12:50) 1 0 0 1 0
30-11-2017 9.2 (15:20) -1.3 (-00:0) 3.9 7.5 (12:10) 2.5 (13:10) 0 0 0 0 0
29-11-2017 12.1 (14:50) 1.8 (00:00) 7 7.5 (05:40) 3.89 (22:40) 4.4 4 0.4 0 0
28-11-2017 10.3 (14:50) -1 (-00:0) 4.7 4.17 (16:10) 2.22 (16:10) 6.6 0 0 1.6 5
27-11-2017 15.5 (16:20) -4.3 (-00:0) 5.6 4.17 (17:10) 1.94 (17:00) 0 0 0 0 0
26-11-2017 13.3 (15:10) -0.4 (00:00) 6.5 7.22 (01:10) 3.33 (00:30) 0 0 0 0 0
25-11-2017 17 (14:10) 3.2 (00:00) 10.1 7.5 (19:20) 3.33 (23:50) 0 0 0 0 0
24-11-2017 18.7 (14:50) 5.8 (00:00) 12.3 7.22 (15:30) 3.33 (15:20) 0 0 0 0 0
23-11-2017 19.1 (15:20) 1.7 (00:00) 10.4 6.67 (15:30) 3.06 (16:00) 0 0 0 0 0
22-11-2017 19.6 (16:30) -1.3 (-00:0) 9.2 3.33 (15:50) 1.67 (14:40) 0 0 0 0 0
21-11-2017 19.6 (15:20) -1.3 (-00:0) 9.2 5.56 (14:10) 2.78 (14:00) 0 0 0 0 0
20-11-2017 20.3 (15:00) -1 (-00:0) 9.6 5 (15:30) 2.22 (13:50) 0 0 0 0 0
19-11-2017 19.3 (15:10) 0 (00:00) 9.6 6.11 (16:20) 2.78 (15:20) 0 0 0 0 0
18-11-2017 20.3 (15:20) 0.4 (00:00) 10.3 5.28 (15:30) 2.78 (15:30) 0 0 0 0 0
17-11-2017 20.8 (16:10) 0.3 (00:00) 10.5 3.61 (15:40) 1.67 (17:20) 0 0 0 0 0

Gráficas

Temp. máximas Temp. mínimas Temp. medias Precipitaciones Rachas de viento máximas Velocidades máximas media en intervalos de 10 minutos

Datos horarios

Fecha y hora oficial Temperatura (ºC) Velocidad del viento (km/h) Dirección del viento Racha (km/h) Dirección de racha Precipitación (mm) Presión (hPa) Tendencia (hPa) Humedad (%)
2017-12-16 23:00:00 1.2 3 Noroeste 10 Nordeste 0 915.4 1.7 81
2017-12-16 22:00:00 2 5 Noroeste 16 Norte 0 914.8 2 79
2017-12-16 21:00:00 2.5 6 Norte 17 Norte 0 914.4 2.3 73
2017-12-16 20:00:00 3.1 4 Noroeste 12 Norte 0 913.7 2.2 67
2017-12-16 19:00:00 4.1 3 Noroeste 14 Norte 0 912.8 1.9 62
2017-12-16 18:00:00 5.4 5 Norte 30 Norte 0 912.1 1.5 53
2017-12-16 17:00:00 7.5 8 Norte 29 Norte 0 911.5 0.9 45
2017-12-16 16:00:00 8.3 8 Norte 28 Norte 0 910.9 0.2 45
2017-12-16 15:00:00 8.5 12 Norte 30 Noroeste 0 910.6 -0.1 46
2017-12-16 14:00:00 8.4 11 Norte 31 Norte 0 910.6 0.1 47
2017-12-16 13:00:00 7 8 Norte 22 Norte 0 910.7 0.8 56
2017-12-16 12:00:00 5.9 7 Norte 27 Norte 0 910.7 1.6 62
2017-12-16 11:00:00 3.9 9 Norte 27 Norte 0 910.5 2 67
2017-12-16 10:00:00 1.6 7 Norte 21 Norte 0 909.9 1.9 77
2017-12-16 09:00:00 -0.2 7 Norte 27 Norte 0 909.1 1.8 86
2017-12-16 08:00:00 -0.4 7 Norte 27 Norte 0 908.5 1.5 87
2017-12-16 07:00:00 -0.1 6 Norte 24 Norte 0 908 1 86
2017-12-16 06:00:00 0.2 7 Norte 24 Norte 0 907.3 0.8 84
2017-12-16 05:00:00 0.4 6 Norte 21 Norte 0 907 0.7 83
2017-12-16 04:00:00 0.6 5 Norte 21 Norte 0 907 0.7 83
2017-12-16 03:00:00 0.6 9 Norte 22 Norte 0 906.5 0.5 84
2017-12-16 02:00:00 1.1 5 Norte 16 Norte 0 906.3 0.7 83
2017-12-16 01:00:00 1.5 6 Norte 23 Norte 0 906.3 1.3 82
2017-12-16 00:00:00 1.4 3 Norte 12 Noroeste 0 906 1.3 84
2017-12-15 23:00:00 1.9 4 Norte 15 Norte 0 905.6 1.4 83
2017-12-15 22:00:00 2.6 4 Noroeste 11 Noroeste 0 905 1.8 82
2017-12-15 21:00:00 3.5 4 Norte 12 Norte 0 904.7 2.1 79
2017-12-15 20:00:00 4.7 5 Noroeste 15 Norte 0 904.2 2.1 73
2017-12-15 19:00:00 5.8 6 Noroeste 18 Noroeste 0 903.2 1.3 74
2017-12-15 18:00:00 6.7 4 Noroeste 16 Noroeste 0 902.6 0.8 77
2017-12-15 17:00:00 7.5 5 Noroeste 15 Norte 0 902.1 0.1 77
2017-12-15 16:00:00 7.8 5 Noroeste 22 Norte 0 901.9 -0.8 79
2017-12-15 15:00:00 9 8 Noroeste 28 Noroeste 0 901.8 -1.9 78
2017-12-15 14:00:00 8.3 9 Noroeste 28 Noroeste 0 902 -2.1 83
2017-12-15 13:00:00 8 13 Noroeste 27 Noroeste 0 902.7 -1.6 88
2017-12-15 12:00:00 7.7 12 Oeste 26 Oeste 0 903.7 0 90
2017-12-15 11:00:00 7.1 8 Noroeste 19 Noroeste 0 904.1 1.2 93
2017-12-15 10:00:00 6.1 3 Noroeste 13 Noroeste 0 904.3 0.8 90
2017-12-15 09:00:00 5.6 2 Este 12 Oeste 0 903.7 -0.3 88
2017-12-15 08:00:00 6.1 5 Oeste 14 Noroeste 0 902.9 -1.6 89
2017-12-15 07:00:00 6.4 5 Noroeste 14 Noroeste 0 903.5 -1.5 90
2017-12-15 06:00:00 7 4 Noroeste 28 Noroeste 0 904 -1 88
2017-12-15 05:00:00 8 8 Noroeste 24 Noroeste 0 904.5 -0.9 90
2017-12-15 04:00:00 8.5 7 Noroeste 27 Norte 0.2 905 -1.1 93
2017-12-15 03:00:00 8.4 6 Noroeste 22 Sudoeste 0.2 905 -1.8 97
2017-12-15 02:00:00 8.3 9 Oeste 28 Noroeste 0.6 905.4 -1.7 99
2017-12-15 01:00:00 8.3 9 Oeste 28 Noroeste 0 906.1 -1.8 99
2017-12-15 00:00:00 8.2 8 Noroeste 28 Oeste 0 906.8 -1.9 100
2017-12-14 23:00:00 8.2 10 Oeste 21 Oeste 0.2 907.1 -1.9 100
2017-12-14 22:00:00 7.9 7 Oeste 15 Oeste 0 907.9 -1.3 100
2017-12-14 21:00:00 7.5 4 Sudeste 10 Oeste 0.2 908.7 -1 100
2017-12-14 20:00:00 7.2 3 Sur 12 Sur 0.2 909 -1 100
2017-12-14 19:00:00 6.6 5 Sudeste 12 Nordeste 0.2 909.2 -1.3 100
2017-12-14 18:00:00 6.1 4 Sudeste 9 Sudeste 0 909.7 -1.2 100
2017-12-14 17:00:00 6.1 4 Sur 8 Sur 0 910 -1.5 99
2017-12-14 16:00:00 6.1 4 Sur 10 Sudoeste 0 910.5 -1.9 99
2017-12-14 15:00:00 6.3 5 Sudoeste 13 Sudoeste 0 910.9 -2.6 97
2017-12-14 14:00:00 6.6 5 Sudoeste 12 Sudoeste 0 911.5 -2.3 94
2017-12-14 13:00:00 6.1 3 Oeste 8 Oeste 0 912.4 -1.5 94
2017-12-14 12:00:00 5.5 4 Noroeste 9 Noroeste 0 913.5 -0.3 97
2017-12-14 11:00:00 4.6 3 Norte 9 Noroeste 0 913.8 0.1 99
2017-12-14 10:00:00 4 3 Noroeste 7 Sudoeste 0 913.9 0.5 100
2017-12-14 09:00:00 3.6 4 Oeste 10 Oeste 0 913.8 0.5 100
2017-12-14 08:00:00 3.7 4 Oeste 9 Oeste 0 913.7 0 100
2017-12-14 07:00:00 3.8 4 Oeste 8 Oeste 0 913.4 -1.1 99
2017-12-14 06:00:00 4.1 3 Sudoeste 5 Noroeste 0 913.3 -1.5 98
2017-12-14 05:00:00 4 3 Norte 7 Norte 0 913.7 -1.6 97
2017-12-14 04:00:00 4.2 3 Noroeste 11 Norte 0 914.5 -1.1 95
2017-12-14 03:00:00 4.1 5 Noroeste 12 Norte 0 914.8 -1.1 93
2017-12-14 02:00:00 4.2 4 Norte 14 Norte 0 915.3 -0.6 89
2017-12-14 01:00:00 4.2 5 Norte 14 Noroeste 0 915.6 -0.5 88
2017-12-14 00:00:00 3.8 4 Norte 13 Norte 0 915.9 -0.4 85
2017-12-13 23:00:00 3.7 5 Norte 17 Norte 0 915.9 -0.3 82
2017-12-13 22:00:00 3.4 3 Norte 14 Noroeste 0 916.1 0.2 81
2017-12-13 21:00:00 4 4 Norte 13 Norte 0 916.3 0.5 76
2017-12-13 20:00:00 4.7 6 Norte 13 Norte 0 916.2 0.6 69
2017-12-13 19:00:00 5.4 3 Noroeste 12 Norte 0 915.9 0.3 66
2017-12-13 18:00:00 6.7 4 Noroeste 15 Noroeste 0 915.8 0 61
2017-12-13 17:00:00 7.5 4 Noroeste 18 Norte 0 915.6 -0.6 57
2017-12-13 16:00:00 8.6 6 Noroeste 17 Noroeste 0 915.6 -1.4 50
2017-12-13 15:00:00 9 6 Noroeste 17 Noroeste 0 915.8 -1.7 51
2017-12-13 14:00:00 7.3 5 Noroeste 12 Noroeste 0 916.2 -2 56
2017-12-13 13:00:00 6.1 3 Oeste 6 Sudoeste 0 917 -0.6 60
2017-12-13 12:00:00 4.1 3 Sudoeste 6 Sur 0 917.5 0.7 67
2017-12-13 11:00:00 2.2 4 Norte 12 Norte 0 918.2 1.8 71
2017-12-13 10:00:00 -1.2 0 Calma 6 Oeste 0 917.6 1.4 83
2017-12-13 09:00:00 -2.9 2 Norte 6 Norte 0 916.8 1.4 90
2017-12-13 08:00:00 -3.4 3 Sudeste 11 Norte 0 916.4 0.9 92
2017-12-13 07:00:00 -3.2 2 Nordeste 4 Nordeste 0 916.2 1.2 91
2017-12-13 06:00:00 -2.7 0 Calma 4 Sudeste 0 915.4 0 90
2017-12-13 05:00:00 -2.6 0 Calma 5 Norte 0 915.5 0.5 89
2017-12-13 04:00:00 -2.2 2 Oeste 5 Norte 0 915 0.3 88
2017-12-13 03:00:00 -1.7 2 Sur 4 Sudoeste 0 915.4 1.5 86
2017-12-13 02:00:00 -0.8 2 Sudeste 7 Sudeste 0 915 1.8 85
2017-12-13 01:00:00 0.2 5 Noroeste 13 Nordeste 0 914.7 1.9 80
2017-12-13 00:00:00 0.2 4 Norte 10 Noroeste 0 913.9 1.7 81
2017-12-12 23:00:00 0.6 5 Noroeste 15 Noroeste 0 913.2 1.2 79
2017-12-12 22:00:00 1.3 6 Noroeste 19 Noroeste 0 912.8 1.9 76
2017-12-12 21:00:00 1.7 5 Norte 13 Norte 0 912.2 2.3 74
2017-12-12 20:00:00 2.3 2 Noroeste 12 Nordeste 0 912 3.2 71
2017-12-12 19:00:00 3.3 4 Norte 12 Norte 0 910.9 2.5 65
2017-12-12 18:00:00 4.7 4 Norte 22 Noroeste 0 909.9 2.2 59
2017-12-12 17:00:00 6.7 6 Norte 30 Noroeste 0 908.8 1.7 51
2017-12-12 16:00:00 7.4 7 Noroeste 27 Norte 0 908.4 1.3 48
2017-12-12 15:00:00 7.5 8 Noroeste 28 Norte 0 907.7 0.7 47
2017-12-12 14:00:00 6.6 10 Norte 28 Norte 0 907.1 0.3 47
2017-12-12 13:00:00 6.2 9 Norte 31 Norte 0 907.1 0.9 48
2017-12-12 12:00:00 5 9 Norte 30 Norte 0 907 2 51
2017-12-12 11:00:00 3.2 10 Norte 24 Norte 0 906.8 2.7 63
2017-12-12 10:00:00 1.2 6 Norte 20 Norte 0 906.2 3.2 76
2017-12-12 09:00:00 -0.4 5 Noroeste 18 Norte 0 905 3.2 84
2017-12-12 08:00:00 -0.2 6 Norte 25 Norte 0 904.1 3.2 83
2017-12-12 07:00:00 0.2 9 Norte 32 Norte 0 903 3.4 82
2017-12-12 06:00:00 0.5 8 Norte 22 Norte 0 901.8 2.2 83
2017-12-12 05:00:00 0.8 5 Norte 16 Norte 0 900.9 2.4 87
2017-12-12 04:00:00 1.6 0 Calma 15 Norte 0 899.6 1.4 88
2017-12-12 03:00:00 2.4 4 Norte 20 Norte 0 899.6 2.1 88
2017-12-12 02:00:00 2.8 7 Norte 21 Norte 0 898.5 1.7 92
2017-12-12 01:00:00 3.4 6 Norte 14 Norte 0 898.2 2.1 90
2017-12-12 00:00:00 3.6 3 Noroeste 11 Sudoeste 0.4 897.5 2.1 94
2017-12-11 23:00:00 3.8 4 Oeste 12 Oeste 0 896.8 2.5 87
2017-12-11 22:00:00 3.7 3 Sudeste 7 Sur 0 896.1 2.5 85
2017-12-11 21:00:00 3.6 2 Este 18 Noroeste 0 895.4 2.9 85
2017-12-11 20:00:00 3.7 6 Noroeste 15 Noroeste 0 894.3 2.9 84
2017-12-11 19:00:00 4.3 4 Norte 21 Oeste 0 893.6 2.9 81
2017-12-11 18:00:00 5.1 4 Oeste 24 Oeste 0 892.5 3.1 79
2017-12-11 17:00:00 6.2 11 Noroeste 27 Noroeste 0 891.4 2 73
2017-12-11 16:00:00 6.1 9 Oeste 24 Oeste 0 890.7 1.5 78
2017-12-11 15:00:00 5.7 11 Noroeste 27 Noroeste 0 889.4 0 80
2017-12-11 14:00:00 5 12 Noroeste 35 Noroeste 0 889.4 0.1 85
2017-12-11 13:00:00 4.5 13 Noroeste 29 Oeste 0 889.2 1.1 91
2017-12-11 12:00:00 4.3 10 Oeste 37 Oeste 0 889.4 1.9 94
2017-12-11 11:00:00 4.1 15 Oeste 31 Oeste 0.6 889.3 2.5 95
2017-12-11 10:00:00 4.2 12 Oeste 24 Oeste 1.4 888.1 1.7 94
2017-12-11 09:00:00 4.4 10 Noroeste 27 Noroeste 1.2 887.5 1.5 94
2017-12-11 08:00:00 5.2 11 Oeste 27 Oeste 2.8 886.8 0.4 92
2017-12-11 07:00:00 5.7 4 Noroeste 33 Noroeste 2 886.4 -1.9 94
2017-12-11 06:00:00 7.6 16 Oeste 62 Sudoeste 0.6 886 -4 89
2017-12-11 05:00:00 9.1 19 Sudoeste 57 Sudoeste 0.6 886.4 -5 88
2017-12-11 04:00:00 9.1 20 Sudoeste 50 Oeste 0.8 888.3 -5.3 89
2017-12-11 03:00:00 8.8 16 Sudoeste 43 Sudoeste 1 890 -4.9 94
2017-12-11 02:00:00 8.3 14 Sudoeste 39 Sur 1 891.4 -4.9 93
2017-12-11 01:00:00 8.6 12 Sudoeste 37 Sudoeste 0 893.6 -3.8 88
2017-12-11 00:00:00 8.5 11 Sudoeste 32 Sur 0 894.9 -4.2 89
2017-12-10 23:00:00 8.4 14 Sudoeste 42 Sudoeste 0 896.3 -3.7 92
2017-12-10 22:00:00 8.5 12 Sudoeste 27 Oeste 0 897.4 -3.3 91
2017-12-10 21:00:00 8.6 11 Oeste 37 Sudoeste 0 899.1 -2.9 91
2017-12-10 20:00:00 8.5 10 Oeste 32 Sudoeste 0 900 -2.6 93
2017-12-10 19:00:00 8 6 Oeste 33 Oeste 0.6 900.7 -3.1 95
2017-12-10 18:00:00 8.2 12 Oeste 37 Oeste 0.2 902 -3.1 93
2017-12-10 17:00:00 8.6 12 Oeste 31 Oeste 0 902.6 -4.1 86
2017-12-10 16:00:00 8.7 8 Oeste 25 Sudoeste 0 903.8 -4.2 84
2017-12-10 15:00:00 8.5 11 Oeste 28 Sudoeste 0 905.1 -3.8 82
2017-12-10 14:00:00 8.3 9 Oeste 24 Oeste 0 906.7 -2.9 84
2017-12-10 13:00:00 8.2 8 Oeste 22 Oeste 0 908 -1.7 86
2017-12-10 12:00:00 8.1 11 Oeste 34 Oeste 0 908.9 -1.2 88
2017-12-10 11:00:00 8.1 9 Oeste 32 Oeste 0 909.6 -0.5 89
2017-12-10 10:00:00 8 11 Oeste 25 Oeste 0 909.7 -0.7 91
2017-12-10 09:00:00 7.7 11 Oeste 27 Oeste 0 910.1 -0.4 95
2017-12-10 08:00:00 7.6 6 Oeste 15 Oeste 0 910.1 -1 96
2017-12-10 07:00:00 7.7 4 Sudoeste 10 Oeste 0 910.4 -1.1 91
2017-12-10 06:00:00 7.7 3 Oeste 9 Nordeste 0 910.5 -1.7 91
2017-12-10 05:00:00 7.7 2 Noroeste 12 Sudoeste 0 911.1 -1.5 91
2017-12-10 04:00:00 7.7 0 Calma 5 Oeste 0 911.5 -1.6 90
2017-12-10 03:00:00 7.7 0 Calma 9 Norte 0 912.2 -1.6 90
2017-12-10 02:00:00 8.6 4 Norte 8 Norte 0 912.6 -1.3 87
2017-12-10 01:00:00 9.2 2 Norte 10 Noroeste 0 913.1 -0.9 87
2017-12-10 00:00:00 9.4 4 Noroeste 13 Noroeste 0 913.8 0 89
2017-12-09 23:00:00 8.8 3 Norte 8 Noroeste 0 913.9 0 91
2017-12-09 22:00:00 8.4 3 Este 5 Sudeste 0 914 -0.2 91
2017-12-09 21:00:00 8.2 2 Norte 6 Oeste 0 913.8 -0.4 90
2017-12-09 20:00:00 7.7 0 Calma 8 Sudeste 0 913.9 -0.4 87
2017-12-09 19:00:00 7.9 3 Sudeste 5 Nordeste 0 914.2 -0.2 82
2017-12-09 18:00:00 8 3 Norte 6 Nordeste 0 914.2 -0.3 80
2017-12-09 17:00:00 8.2 2 Nordeste 8 Noroeste 0 914.3 -0.8 77
2017-12-09 16:00:00 8.4 4 Oeste 9 Noroeste 0 914.4 -1 75
2017-12-09 15:00:00 8.3 4 Norte 12 Norte 0 914.5 -1.4 77
2017-12-09 14:00:00 8.1 4 Norte 13 Norte 0 915.1 -0.8 76
2017-12-09 13:00:00 8 4 Noroeste 12 Noroeste 0 915.4 0 76
2017-12-09 12:00:00 7.2 5 Noroeste 14 Norte 0 915.9 0.5 80
2017-12-09 11:00:00 5.6 5 Noroeste 14 Noroeste 0 915.9 1 90
2017-12-09 10:00:00 3.8 4 Oeste 12 Noroeste 0 915.4 0.9 98
2017-12-09 09:00:00 3.8 4 Noroeste 14 Noroeste 0 915.4 0.9 96
2017-12-09 08:00:00 4.6 4 Noroeste 14 Noroeste 0 914.9 0.3 96
2017-12-09 07:00:00 5.1 4 Noroeste 10 Noroeste 0 914.5 -0.5 95
2017-12-09 06:00:00 5.6 3 Noroeste 12 Norte 0 914.5 -0.3 95
2017-12-09 05:00:00 5.7 3 Norte 10 Norte 0 914.6 -0.5 94
2017-12-09 04:00:00 5.7 2 Noroeste 7 Noroeste 0 915 -0.5 97
2017-12-09 03:00:00 5.6 2 Norte 5 Norte 0 914.8 -0.9 96
2017-12-09 02:00:00 5.7 4 Oeste 6 Oeste 0.4 915.1 -0.8 96
2017-12-09 01:00:00 6 0 Calma 8 Noroeste 0.6 915.5 -0.3 92
2017-12-09 00:00:00 6.7 3 Norte 11 Norte 0 915.7 -0.2 83
2017-12-08 23:00:00 6.7 3 Oeste 9 Noroeste 0 915.9 -0.1 79
2017-12-08 22:00:00 7.2 3 Noroeste 8 Noroeste 0 915.8 -0.2 77
2017-12-08 21:00:00 7.1 4 Oeste 8 Oeste 0 915.9 -0.1 73
2017-12-08 20:00:00 8 3 Noroeste 12 Noroeste 0 916 0.1 72
2017-12-08 19:00:00 8.4 4 Noroeste 14 Noroeste 0 916 0 72
2017-12-08 18:00:00 9.4 3 Noroeste 17 Noroeste 0 916 -0.1 67
2017-12-08 17:00:00 10 7 Noroeste 20 Oeste 0 915.9 -0.4 63
2017-12-08 16:00:00 11.6 8 Noroeste 24 Noroeste 0 916 -1.4 55
2017-12-08 15:00:00 11.3 9 Noroeste 27 Oeste 0 916.1 -1.5 56
2017-12-08 14:00:00 12.3 13 Noroeste 25 Noroeste 0 916.3 -2.2 50
2017-12-08 13:00:00 11.6 8 Noroeste 20 Oeste 0 917.4 -1 45
2017-12-08 12:00:00 9.6 3 Norte 10 Norte 0 917.6 -0.5 43
2017-12-08 11:00:00 6.6 4 Norte 17 Norte 0 918.5 0.7 47
2017-12-08 10:00:00 1.5 3 Oeste 8 Noroeste 0 918.4 0.4 69
2017-12-08 09:00:00 0 2 Sur 8 Oeste 0 918.1 -0.1 74
2017-12-08 08:00:00 -0.2 2 Sudeste 9 Noroeste 0 917.8 -0.4 74
2017-12-08 07:00:00 0.4 0 Calma 5 Sudeste 0 918 -0.8 69
2017-12-08 06:00:00 0.4 2 Sudoeste 6 Oeste 0 918.2 -0.9 68
2017-12-08 05:00:00 0.3 3 Sudeste 13 Norte 0 918.2 -0.9 69
2017-12-08 04:00:00 0.4 4 Norte 12 Norte 0 918.8 -0.5 66
2017-12-08 03:00:00 -0.3 4 Oeste 9 Nordeste 0 919.1 -0.8 70
2017-12-08 02:00:00 0.6 5 Norte 14 Norte 0 919.1 -0.4 62
2017-12-08 01:00:00 0.7 2 Nordeste 5 Sur 0 919.3 -0.5 63
2017-12-08 00:00:00 1.5 3 Norte 8 Norte 0 919.9 -0.4 55
2017-12-07 23:00:00 1.6 0 Calma 3 Sudeste 0 919.5 -0.2 60
2017-12-07 22:00:00 1.9 4 Sudeste 10 Norte 0 919.8 0 56
2017-12-07 21:00:00 2.5 3 Norte 15 Noroeste 0 920.3 1 50
2017-12-07 20:00:00 3.9 4 Nordeste 11 Norte 0 919.7 0.6 46
2017-12-07 19:00:00 5.4 4 Norte 9 Nordeste 0 919.8 0.7 44
2017-12-07 18:00:00 8.6 2 Noroeste 5 Noroeste 0 919.3 -0.1 35
2017-12-07 17:00:00 11.9 3 Sudoeste 9 Oeste 0 919.1 -1.2 30
2017-12-07 16:00:00 11.8 5 Oeste 10 Oeste 0 919.1 -1.5 28
2017-12-07 15:00:00 9.1 3 Sudoeste 6 Oeste 0 919.4 -2 36
2017-12-07 14:00:00 7.1 2 Norte 5 Noroeste 0 920.3 -1.6 45
2017-12-07 13:00:00 5.9 3 Sudoeste 5 Sudeste 0 920.6 -1.2 54
2017-12-07 12:00:00 3.3 2 Oeste 8 Sudeste 0 921.4 0.3 60
2017-12-07 11:00:00 1.8 3 Sudeste 6 Sur 0 921.9 1.2 62
2017-12-07 10:00:00 -0.6 3 Sudoeste 5 Oeste 0 921.8 1.2 71
2017-12-07 09:00:00 -2.9 3 Oeste 5 Oeste 0 921.1 0.5 79
2017-12-07 08:00:00 -3.7 0 Calma 4 Oeste 0 920.7 -0.1 83
2017-12-07 07:00:00 -3.7 0 Calma 3 Sudoeste 0 920.6 -0.6 83
2017-12-07 06:00:00 -3.3 0 Calma 3 Sudeste 0 920.6 -0.7 80
2017-12-07 05:00:00 -3.2 0 Calma 4 Sudeste 0 920.8 -0.6 80
2017-12-07 04:00:00 -2.8 0 Calma 5 Sudeste 0 921.2 -0.8 78
2017-12-07 03:00:00 -2.6 0 Calma 4 Noroeste 0 921.3 -0.9 78
2017-12-07 02:00:00 -2.1 0 Calma 5 Sudeste 0 921.4 -0.5 75
2017-12-07 01:00:00 -1.7 0 Calma 3 Sudoeste 0 922 0 73
2017-12-07 00:00:00 -1.1 0 Calma 4 Nordeste 0 922.2 0.2 71
2017-12-06 23:00:00 0 2 Noroeste 5 Norte 0 921.9 0.4 67
2017-12-06 22:00:00 0.8 2 Nordeste 4 Nordeste 0 922 0.6 65
2017-12-06 21:00:00 2 2 Oeste 5 Noroeste 0 922 0.7 60
2017-12-06 20:00:00 3.9 0 Calma 5 Nordeste 0 921.5 0.5 55
2017-12-06 19:00:00 6.7 0 Calma 5 Sudeste 0 921.4 0.5 46
2017-12-06 18:00:00 9.6 3 Oeste 9 Oeste 0 921.3 0.3 37
2017-12-06 17:00:00 13.2 4 Oeste 10 Oeste 0 921 -0.6 28
2017-12-06 16:00:00 14.4 4 Oeste 9 Sudeste 0 920.9 -1.5 23
2017-12-06 15:00:00 14 4 Sur 11 Sur 0 921 -2.3 22
2017-12-06 14:00:00 12.8 5 Sur 12 Sudeste 0 921.6 -2.2 25
2017-12-06 13:00:00 10 3 Sudoeste 7 Sudoeste 0 922.4 -1.1 32
2017-12-06 12:00:00 6.3 3 Sudoeste 5 Noroeste 0 923.3 -0.1 34
2017-12-06 11:00:00 2.4 3 Oeste 5 Oeste 0 923.8 0.6 51
2017-12-06 10:00:00 -1.8 2 Sur 3 Sur 0 923.5 0.4 63
2017-12-06 09:00:00 -5 0 Calma 3 Sudoeste 0 923.4 0.3 75
2017-12-06 08:00:00 -4.9 2 Sudoeste 4 Oeste 0 923.2 -0.1 73
2017-12-06 07:00:00 -4.3 0 Calma 3 Este 0 923.1 -0.4 76
2017-12-06 06:00:00 -4.2 3 Sudeste 4 Sudeste 0 923.1 -0.3 76
2017-12-06 05:00:00 -3.7 0 Calma 4 Sur 0 923.3 -0.3 75
2017-12-06 04:00:00 -3.2 0 Calma 4 Sur 0 923.5 -0.5 76
2017-12-06 03:00:00 -2.7 2 Sur 4 Sur 0 923.4 -0.8 74
2017-12-06 02:00:00 -2.2 2 Sur 4 Sur 0 923.6 -0.4 74
2017-12-06 01:00:00 -1.5 2 Sudoeste 3 Norte 0 924 -0.2 71
2017-12-06 00:00:00 -0.9 0 Calma 3 Sudoeste 0 924.2 0.2 71
2017-12-05 23:00:00 0 0 Calma 5 Norte 0 924 0.2 67
2017-12-05 22:00:00 0.8 2 Sur 4 Noroeste 0 924.2 0.8 64
2017-12-05 21:00:00 2.4 0 Calma 5 Nordeste 0 924 0.9 58
2017-12-05 20:00:00 4.2 0 Calma 10 Norte 0 923.8 0.9 55
2017-12-05 19:00:00 6.3 4 Norte 8 Norte 0 923.4 0.6 48
2017-12-05 18:00:00 9.7 0 Calma 8 Noroeste 0 923.1 0.3 34
2017-12-05 17:00:00 13.9 3 Noroeste 9 Noroeste 0 922.9 -0.4 25
2017-12-05 16:00:00 14.7 4 Sudoeste 11 Sur 0 922.8 -1.2 19
2017-12-05 15:00:00 14 4 Sudoeste 10 Sur 0 922.8 -1.9 23
2017-12-05 14:00:00 12.5 6 Sur 10 Sudeste 0 923.3 -1.8 27
2017-12-05 13:00:00 9.4 4 Sudoeste 7 Sudoeste 0 924 -0.8 43
2017-12-05 12:00:00 6.4 3 Sudoeste 6 Sur 0 924.7 0.1 54
2017-12-05 11:00:00 3.1 2 Sur 5 Sudoeste 0 925.1 0.9 62
2017-12-05 10:00:00 -0.4 0 Calma 4 Sur 0 924.8 0.9 74
2017-12-05 09:00:00 -4 0 Calma 4 Sudeste 0 924.6 0.9 90
2017-12-05 08:00:00 -4.5 0 Calma 4 Sudoeste 0 924.2 0.4 89
2017-12-05 07:00:00 -4.1 0 Calma 3 Sudeste 0 923.9 0 87
2017-12-05 06:00:00 -3.7 0 Calma 3 Sudoeste 0 923.7 -0.2 88
2017-12-05 05:00:00 -3.2 0 Calma 5 Sur 0 923.8 -0.3 87
2017-12-05 04:00:00 -2.6 2 Noroeste 6 Sur 0 923.9 -0.3 85
2017-12-05 03:00:00 -2.5 2 Sur 5 Sudeste 0 923.9 -0.8 85
2017-12-05 02:00:00 -1.9 0 Calma 4 Sudoeste 0 924.1 -0.2 83
2017-12-05 01:00:00 -1.3 0 Calma 4 Noroeste 0 924.2 0 79
2017-12-05 00:00:00 -0.8 0 Calma 3 Sudoeste 0 924.7 1 79
2017-12-04 23:00:00 0 0 Calma 6 Norte 0 924.3 0.9 74
2017-12-04 22:00:00 1 5 Norte 9 Nordeste 0 924.2 1.4 72
2017-12-04 21:00:00 1.9 8 Norte 12 Norte 0 923.7 1.4 66
2017-12-04 20:00:00 3.7 2 Sudeste 13 Norte 0 923.4 1.3 61
2017-12-04 19:00:00 5.5 5 Norte 12 Nordeste 0 922.8 0.9 56
2017-12-04 18:00:00 7.9 3 Norte 7 Nordeste 0 922.3 0.3 43
2017-12-04 17:00:00 11.1 2 Norte 10 Oeste 0 922.1 -0.1 28
2017-12-04 16:00:00 11.3 5 Oeste 10 Oeste 0 921.9 -0.8 29
2017-12-04 15:00:00 11 4 Noroeste 10 Oeste 0 922 -1.3 32
2017-12-04 14:00:00 9.9 4 Sudoeste 9 Oeste 0 922.2 -1.1 43
2017-12-04 13:00:00 8.4 3 Oeste 9 Oeste 0 922.7 -0.2 50
2017-12-04 12:00:00 5.9 4 Oeste 6 Oeste 0 923.3 1 57
2017-12-04 11:00:00 2.4 4 Norte 9 Noroeste 0 923.3 1.7 68
2017-12-04 10:00:00 -0.8 3 Oeste 5 Oeste 0 922.9 2 73
2017-12-04 09:00:00 -4 2 Noroeste 6 Sudoeste 0 922.3 1.9 86
2017-12-04 08:00:00 -3.7 0 Calma 6 Norte 0 921.6 1.3 82
2017-12-04 07:00:00 -3.9 2 Este 5 Nordeste 0 920.9 0.6 84
2017-12-04 06:00:00 -3.4 0 Calma 7 Oeste 0 920.4 0.5 85
2017-12-04 05:00:00 -2.7 2 Noroeste 10 Norte 0 920.3 0.7 79
2017-12-04 04:00:00 -1.8 2 Este 10 Sudoeste 0 920.3 0.6 83
2017-12-04 03:00:00 -1.7 3 Sudoeste 6 Sudoeste 0 919.9 0.3 81
2017-12-04 02:00:00 -1.1 3 Noroeste 12 Oeste 0 919.6 0.4 76
2017-12-04 01:00:00 -1.3 4 Noroeste 9 Noroeste 0 919.7 0.8 71
2017-12-04 00:00:00 -1.2 3 Sur 7 Sudoeste 0 919.6 1 64
2017-12-03 23:00:00 -0.3 0 Calma 10 Oeste 0 919.2 1.1 60
2017-12-03 22:00:00 0.2 5 Oeste 10 Norte 0 918.9 1.2 54
2017-12-03 21:00:00 0.8 2 Norte 20 Norte 0 918.6 1.6 47
2017-12-03 20:00:00 1.7 4 Noroeste 21 Norte 0 918.1 1.8 39
2017-12-03 19:00:00 2.8 5 Noroeste 15 Noroeste 0 917.7 1.8 32
2017-12-03 18:00:00 4.5 5 Norte 21 Noroeste 0 917 1.3 24
2017-12-03 17:00:00 8 5 Noroeste 21 Norte 0 916.3 0.3 18
2017-12-03 16:00:00 8.2 6 Noroeste 24 Noroeste 0 915.9 -0.4 22
2017-12-03 15:00:00 8.8 6 Noroeste 21 Noroeste 0 915.7 -0.6 22
2017-12-03 14:00:00 8.4 5 Norte 19 Norte 0 916 -0.3 19
2017-12-03 13:00:00 6.8 5 Norte 21 Norte 0 916.3 0.7 22
2017-12-03 12:00:00 4.9 6 Norte 20 Norte 0 916.3 1.2 26
2017-12-03 11:00:00 2.7 5 Norte 17 Norte 0 916.3 1.7 32
2017-12-03 10:00:00 -0.7 5 Noroeste 14 Noroeste 0 915.6 1.5 43
2017-12-03 09:00:00 -3.3 5 Noroeste 13 Norte 0 915.1 1.5 52
2017-12-03 08:00:00 -3.5 7 Noroeste 16 Noroeste 0 914.6 1 57
2017-12-03 07:00:00 -2.8 4 Noroeste 22 Noroeste 0 914.1 0.8 54
2017-12-03 06:00:00 -2.4 4 Norte 19 Norte 0 913.6 0.8 57
2017-12-03 05:00:00 -2.2 6 Norte 22 Norte 0 913.6 1.2 60
2017-12-03 04:00:00 -1.9 6 Norte 26 Norte 0 913.3 0.8 63
2017-12-03 03:00:00 -1.7 6 Norte 19 Noroeste 0 912.8 0.6 64
2017-12-03 02:00:00 -1.3 5 Noroeste 25 Noroeste 0 912.4 0.7 64
2017-12-03 01:00:00 -0.9 4 Noroeste 22 Noroeste 0 912.5 1.8 65
2017-12-03 00:00:00 -0.4 7 Noroeste 22 Noroeste 0 912.2 1 62
2017-12-02 23:00:00 0.1 9 Noroeste 36 Norte 0 911.7 0.7 58
2017-12-02 22:00:00 0.7 12 Norte 45 Norte 0 910.7 0.4 54
2017-12-02 21:00:00 1.5 12 Noroeste 43 Norte 0 911.2 1 55
2017-12-02 20:00:00 1.5 10 Noroeste 27 Noroeste 0 911 0.8 68
2017-12-02 19:00:00 1.9 10 Noroeste 36 Noroeste 0 910.3 0 55
2017-12-02 18:00:00 2.5 9 Noroeste 33 Nordeste 0 910.2 0.2 54
2017-12-02 17:00:00 3.4 7 Noroeste 28 Noroeste 0 910.2 -0.1 55
2017-12-02 16:00:00 3.8 10 Noroeste 33 Noroeste 0 910.3 -0.8 55
2017-12-02 15:00:00 4.5 13 Noroeste 39 Noroeste 0 910 -1.2 53
2017-12-02 14:00:00 2.8 7 Noroeste 24 Oeste 0 910.3 -1.5 66
2017-12-02 13:00:00 2.5 11 Noroeste 28 Noroeste 0 911.1 -0.6 68
2017-12-02 12:00:00 2.5 13 Noroeste 32 Norte 0 911.2 -0.1 67
2017-12-02 11:00:00 1 11 Noroeste 25 Norte 0 911.8 0.7 74
2017-12-02 10:00:00 -0.5 8 Noroeste 21 Noroeste 0 911.7 0.8 79
2017-12-02 09:00:00 -1 6 Noroeste 20 Norte 0 911.3 0.5 80
2017-12-02 08:00:00 -1.4 4 Noroeste 14 Noroeste 0 911.1 0.1 80
2017-12-02 07:00:00 -1.8 3 Norte 14 Noroeste 0 910.9 -0.2 82
2017-12-02 06:00:00 -2.3 8 Noroeste 19 Noroeste 0 910.8 -0.5 80
2017-12-02 05:00:00 -2.1 4 Noroeste 15 Norte 0 911 -0.2 78
2017-12-02 04:00:00 -2.6 4 Norte 14 Norte 0 911.1 -0.2 79
2017-12-02 03:00:00 -3.2 3 Oeste 13 Noroeste 0 911.3 0.6 81
2017-12-02 02:00:00 -3 3 Noroeste 14 Noroeste 0 911.2 0.6 78
2017-12-02 01:00:00 -2.6 4 Norte 22 Norte 0 911.3 0.9 74
2017-12-02 00:00:00 -2.2 6 Noroeste 18 Norte 0 910.7 0.9 73
2017-12-01 23:00:00 -1.9 5 Noroeste 17 Noroeste 0 910.6 1.2 72
2017-12-01 22:00:00 -1.5 4 Noroeste 17 Noroeste 0 910.4 1.7 70
2017-12-01 21:00:00 -1 5 Noroeste 17 Noroeste 0 909.8 1.9 69
2017-12-01 20:00:00 -0.6 5 Norte 14 Noroeste 0 909.4 2.3 72
2017-12-01 19:00:00 -0.4 6 Norte 23 Norte 0 908.7 2.7 76
2017-12-01 18:00:00 0.8 5 Noroeste 23 Norte 0 907.9 2.3 67
2017-12-01 17:00:00 2.3 5 Noroeste 36 Norte 0 907.1 1.5 66
2017-12-01 16:00:00 2.7 5 Norte 21 Norte 0 906 0.1 84
2017-12-01 15:00:00 1.7 7 Noroeste 32 Noroeste 1 905.6 -0.8 91
2017-12-01 14:00:00 3.3 11 Noroeste 32 Noroeste 0 905.6 -1.3 81
2017-12-01 13:00:00 3.8 12 Noroeste 35 Noroeste 0 905.9 -1.4 64
2017-12-01 12:00:00 5 8 Noroeste 22 Noroeste 0 906.4 -1.1 57
2017-12-01 11:00:00 3.5 4 Oeste 11 Noroeste 0 906.9 -0.9 64
2017-12-01 10:00:00 0.2 3 Oeste 5 Oeste 0 907.3 -0.9 74
2017-12-01 09:00:00 -2.8 3 Sudoeste 6 Sudoeste 0 907.5 -1 87
2017-12-01 08:00:00 -2.7 0 Calma 5 Oeste 0 907.8 -1 87
2017-12-01 07:00:00 -2.4 2 Sudoeste 8 Nordeste 0 908.2 -1.1 85
2017-12-01 06:00:00 -1.9 3 Oeste 5 Oeste 0 908.5 -0.9 84
2017-12-01 05:00:00 -1.3 2 Norte 9 Noroeste 0 908.8 -0.7 82
2017-12-01 04:00:00 -0.6 3 Noroeste 14 Norte 0 909.3 -0.2 80
2017-12-01 03:00:00 -0.4 4 Noroeste 12 Noroeste 0 909.4 -0.5 78
2017-12-01 02:00:00 -0.1 7 Norte 18 Norte 0 909.5 -0.1 76
2017-12-01 01:00:00 0 8 Norte 23 Norte 0 909.5 0 75
2017-12-01 00:00:00 0.2 8 Norte 23 Nordeste 0 909.9 0.5 71
2017-11-30 23:00:00 0.4 7 Norte 17 Nordeste 0 909.6 0.8 65
2017-11-30 22:00:00 1.1 4 Norte 13 Norte 0 909.5 1.2 62
2017-11-30 21:00:00 1.6 5 Norte 14 Norte 0 909.4 1.9 59
2017-11-30 20:00:00 2.3 4 Norte 13 Norte 0 908.8 1.9 56
2017-11-30 19:00:00 3.5 5 Norte 18 Norte 0 908.3 2.2 51
2017-11-30 18:00:00 5.1 6 Norte 19 Norte 0 907.5 1.8 43
2017-11-30 17:00:00 7.9 6 Norte 19 Norte 0 906.9 1.1 35
2017-11-30 16:00:00 8.8 6 Norte 22 Norte 0 906.1 0.2 27
2017-11-30 15:00:00 8.8 8 Norte 27 Norte 0 905.7 -0.3 34
2017-11-30 14:00:00 8.3 7 Norte 26 Norte 0 905.8 -0.2 37
2017-11-30 13:00:00 7.8 8 Norte 27 Norte 0 905.9 0.5 40
2017-11-30 12:00:00 6.7 8 Norte 23 Noroeste 0 906 1.3 43
2017-11-30 11:00:00 4.4 6 Norte 15 Norte 0 906 2.1 51
2017-11-30 10:00:00 2 3 Noroeste 14 Noroeste 0 905.4 2.1 59
2017-11-30 09:00:00 -0.8 4 Norte 17 Noroeste 0 904.7 1.5 68
2017-11-30 08:00:00 -1.2 5 Norte 16 Norte 0 903.9 0.8 74
2017-11-30 07:00:00 -0.8 5 Norte 18 Norte 0 903.3 0.1 73
2017-11-30 06:00:00 -0.9 4 Noroeste 13 Oeste 0 903.2 0.4 81
2017-11-30 05:00:00 -0.5 3 Norte 14 Noroeste 0 903.1 0.6 78
2017-11-30 04:00:00 -0.1 4 Noroeste 12 Noroeste 0 903.2 1 76
2017-11-30 03:00:00 0.6 5 Noroeste 13 Noroeste 0 902.8 0.8 73
2017-11-30 02:00:00 0.9 4 Noroeste 13 Norte 0 902.5 0.6 71
2017-11-30 01:00:00 1.4 5 Norte 16 Noroeste 0 902.2 0.7 70
2017-11-30 00:00:00 1.8 3 Norte 18 Nordeste 0 902 1 72
2017-11-29 23:00:00 2.7 9 Nordeste 26 Nordeste 0 901.9 1.3 69
2017-11-29 22:00:00 3.4 8 Norte 23 Nordeste 0 901.5 1.5 67
2017-11-29 21:00:00 4.1 12 Norte 22 Norte 0 901 1.8 63
2017-11-29 20:00:00 5.2 11 Nordeste 21 Nordeste 0 900.6 2 58
2017-11-29 19:00:00 6.2 8 Nordeste 18 Norte 0 900 1.9 58
2017-11-29 18:00:00 7.8 5 Norte 16 Norte 0 899.2 1.5 54
2017-11-29 17:00:00 10 6 Norte 23 Norte 0 898.6 0.7 48
2017-11-29 16:00:00 10.7 5 Noroeste 19 Noroeste 0 898.1 -0.2 48
2017-11-29 15:00:00 11.6 5 Norte 20 Noroeste 0 897.7 -1.3 50
2017-11-29 14:00:00 11 9 Noroeste 19 Noroeste 0 897.9 -1.6 64
2017-11-29 13:00:00 10.5 3 Nordeste 15 Nordeste 0 898.3 -1 67
2017-11-29 12:00:00 9.3 3 Norte 11 Noroeste 0 899 0.1 76
2017-11-29 11:00:00 8.3 4 Norte 14 Norte 0.2 899.5 0.5 87
2017-11-29 10:00:00 6.6 4 Norte 13 Norte 0 899.3 0.6 96
2017-11-29 09:00:00 6.4 3 Oeste 7 Sudeste 0 898.9 0 98
2017-11-29 08:00:00 6.5 3 Oeste 10 Norte 0.2 899 -0.4 97
2017-11-29 07:00:00 6.8 3 Norte 21 Nordeste 0 898.7 -1.3 94
2017-11-29 06:00:00 6.7 12 Norte 27 Nordeste 0.8 898.9 -1.8 95
2017-11-29 05:00:00 8 2 Norte 10 Norte 0.8 899.4 -2.1 97
2017-11-29 04:00:00 8.1 0 Calma 5 Sudeste 0.2 900 -2.5 97
2017-11-29 03:00:00 8.2 2 Sudeste 5 Este 0.2 900.7 -2.5 97
2017-11-29 02:00:00 8.1 3 Este 7 Sudeste 0.6 901.5 -2.3 98
2017-11-29 01:00:00 7.9 3 Sudeste 6 Sudeste 1.4 902.5 -1.6 98
2017-11-29 00:00:00 7.8 2 Sur 5 Sudeste 1 903.2 -1.4 97
2017-11-28 23:00:00 7.8 3 Sudeste 5 Sudoeste 0.8 903.8 -1.7 96
2017-11-28 22:00:00 7.6 3 Sudeste 8 Sur 0.4 904.1 -1.8 97
2017-11-28 21:00:00 7.5 4 Sudeste 11 Este 0.8 904.6 -1.9 96
2017-11-28 20:00:00 7.5 4 Sudeste 7 Sudeste 0.6 905.5 -1.4 95
2017-11-28 19:00:00 7.5 3 Sudeste 9 Oeste 1.4 905.9 -1.3 95
2017-11-28 18:00:00 7.6 5 Oeste 10 Oeste 1.2 906.5 -1.2 93
2017-11-28 17:00:00 8.1 5 Oeste 15 Sudoeste 0.4 906.9 -1.5 88
2017-11-28 16:00:00 9.6 8 Sudoeste 14 Sudoeste 0 907.2 -2.2 68
2017-11-28 15:00:00 10.2 5 Oeste 11 Sudoeste 0 907.7 -3.1 48
2017-11-28 14:00:00 10 2 Oeste 10 Sudoeste 0 908.4 -3 44
2017-11-28 13:00:00 9.2 2 Noroeste 6 Sudeste 0 909.4 -2 45
2017-11-28 12:00:00 5.6 2 Sudeste 8 Sudoeste 0 910.8 -1 54
2017-11-28 11:00:00 3.5 4 Noroeste 6 Norte 0 911.4 -0.3 61
2017-11-28 10:00:00 0.8 3 Oeste 7 Oeste 0 911.4 -0.3 64
2017-11-28 09:00:00 -0.9 0 Calma 6 Sur 0 911.8 -0.3 72
2017-11-28 08:00:00 -0.8 2 Nordeste 5 Sudeste 0 911.7 -0.8 71
2017-11-28 07:00:00 -0.7 2 Oeste 4 Sudoeste 0 911.7 -1.2 69
2017-11-28 06:00:00 -0.7 0 Calma 5 Este 0 912.1 -1.4 71
2017-11-28 05:00:00 -0.5 3 Sudeste 6 Sur 0 912.5 -1.8 70
2017-11-28 04:00:00 -0.1 2 Sur 4 Sur 0 912.9 -1.8 70
2017-11-28 03:00:00 -0.2 0 Calma 5 Este 0 913.5 -1.8 71
2017-11-28 02:00:00 0.2 2 Sur 6 Nordeste 0 914.3 -0.9 67
2017-11-28 01:00:00 0.8 0 Calma 3 Nordeste 0 914.7 -0.9 65
2017-11-28 00:00:00 1.1 0 Calma 5 Oeste 0 915.3 -0.6 65
2017-11-27 23:00:00 2 0 Calma 3 Sudoeste 0 915.2 -0.8 62
2017-11-27 22:00:00 3.1 0 Calma 5 Sudoeste 0 915.6 -0.6 60
2017-11-27 21:00:00 4.8 0 Calma 4 Sudoeste 0 915.9 -0.2 55
2017-11-27 20:00:00 6.7 2 Oeste 7 Sudeste 0 916 0 50
2017-11-27 19:00:00 8.7 4 Este 7 Sudoeste 0 916.2 0.1 43
2017-11-27 18:00:00 11 5 Noroeste 15 Sudoeste 0 916.1 -0.4 40
2017-11-27 17:00:00 13.4 7 Oeste 14 Oeste 0 916 -1.2 36
2017-11-27 16:00:00 14.9 3 Oeste 8 Oeste 0 916.1 -2 28
2017-11-27 15:00:00 12.8 3 Oeste 7 Sur 0 916.5 -2.6 28
2017-11-27 14:00:00 12.1 3 Sudoeste 13 Sudoeste 0 917.2 -2.5 28
2017-11-27 13:00:00 10.1 3 Sudeste 7 Sudeste 0 918.1 -1.7 33
2017-11-27 12:00:00 8.4 2 Oeste 8 Noroeste 0 919.1 -0.6 32
2017-11-27 11:00:00 5.2 2 Norte 10 Norte 0 919.7 0.2 42
2017-11-27 10:00:00 0.8 2 Noroeste 6 Oeste 0 919.8 1 55
2017-11-27 09:00:00 -3.7 2 Sudeste 5 Sudeste 0 919.7 0.8 72
2017-11-27 08:00:00 -4.3 4 Sudeste 11 Nordeste 0 919.5 0.8 72
2017-11-27 07:00:00 -3.6 3 Oeste 4 Oeste 0 918.8 -0.2 70
2017-11-27 06:00:00 -3.4 0 Calma 5 Sudoeste 0 918.9 -0.1 72
2017-11-27 05:00:00 -2.7 2 Sudeste 5 Sudoeste 0 918.7 -0.4 70
2017-11-27 04:00:00 -2.5 3 Sur 5 Sur 0 919 -0.3 69
2017-11-27 03:00:00 -2 2 Sur 4 Sur 0 919 -0.6 67
2017-11-27 02:00:00 -1.1 0 Calma 4 Sudeste 0 919.1 -0.5 65
2017-11-27 01:00:00 -0.4 0 Calma 8 Sur 0 919.3 -0.2 65
2017-11-27 00:00:00 0.7 2 Noroeste 7 Sudeste 0 919.6 0.2 62
2017-11-26 23:00:00 1.6 2 Noroeste 12 Noroeste 0 919.6 0.7 59
2017-11-26 22:00:00 2.5 8 Norte 14 Norte 0 919.5 0.8 57
2017-11-26 21:00:00 3.9 2 Sur 9 Norte 0 919.4 0.7 53
2017-11-26 20:00:00 5.9 3 Sudoeste 8 Norte 0 918.9 0.7 48
2017-11-26 19:00:00 7.8 4 Norte 10 Norte 0 918.7 0.9 42
2017-11-26 18:00:00 9.6 4 Noroeste 20 Noroeste 0 918.7 0.7 37
2017-11-26 17:00:00 12.1 9 Noroeste 19 Noroeste 0 918.2 -0.5 31
2017-11-26 16:00:00 13 6 Noroeste 15 Noroeste 0 917.8 -1.5 30
2017-11-26 15:00:00 12.9 4 Sudoeste 12 Oeste 0 918 -1.6 32
2017-11-26 14:00:00 11.8 5 Oeste 10 Oeste 0 918.7 -0.8 32
2017-11-26 13:00:00 9.8 3 Oeste 9 Noroeste 0 919.3 0.3 34
2017-11-26 12:00:00 7.7 4 Oeste 12 Sur 0 919.6 1.3 41
2017-11-26 11:00:00 4.9 6 Sur 11 Sudeste 0 919.5 2.3 57
2017-11-26 10:00:00 2.5 5 Sur 8 Sudeste 0 919 2.2 68
2017-11-26 09:00:00 -0.4 4 Norte 10 Norte 0 918.3 1.6 77
2017-11-26 08:00:00 0.8 4 Norte 15 Norte 0 917.2 0.9 74
2017-11-26 07:00:00 1.7 4 Norte 18 Norte 0 916.8 0.8 70
2017-11-26 06:00:00 2.1 5 Norte 14 Noroeste 0 916.7 0.6 75
2017-11-26 05:00:00 3.1 6 Noroeste 16 Noroeste 0 916.3 0.5 73
2017-11-26 04:00:00 4.1 6 Noroeste 17 Noroeste 0 916 0.4 75
2017-11-26 03:00:00 4.7 5 Noroeste 23 Norte 0 916.1 0.9 76
2017-11-26 02:00:00 5.6 6 Norte 26 Nordeste 0 915.8 1 76
2017-11-26 01:00:00 6.8 9 Norte 25 Norte 0 915.6 1.3 74
2017-11-26 00:00:00 7.9 12 Nordeste 21 Nordeste 0 915.2 1.4 73
2017-11-25 23:00:00 9.1 6 Nordeste 22 Norte 0 914.8 1.3 69
2017-11-25 22:00:00 9.7 5 Norte 20 Nordeste 0 914.3 1.4 67
2017-11-25 21:00:00 10.5 8 Norte 22 Norte 0 913.8 1.5 65
2017-11-25 20:00:00 11.1 11 Norte 27 Norte 0 913.5 1.6 65
2017-11-25 19:00:00 11.9 4 Norte 14 Nordeste 0 912.9 1.5 63
2017-11-25 18:00:00 12.4 2 Oeste 7 Noroeste 0 912.3 1 51
2017-11-25 17:00:00 13.5 4 Oeste 15 Noroeste 0 911.9 0.3 48
2017-11-25 16:00:00 14.6 4 Noroeste 15 Norte 0 911.4 -0.7 45
2017-11-25 15:00:00 16.5 6 Noroeste 19 Norte 0 911.3 -1.2 40
2017-11-25 14:00:00 16.7 7 Noroeste 17 Oeste 0 911.6 -1 36
2017-11-25 13:00:00 14.7 6 Oeste 11 Oeste 0 912.1 -0.7 43
2017-11-25 12:00:00 10.8 2 Oeste 5 Sudoeste 0 912.5 0.1 47
2017-11-25 11:00:00 7.9 2 Sudoeste 5 Sudeste 0 912.6 1 54
2017-11-25 10:00:00 5.7 0 Calma 6 Norte 0 912.8 1 61
2017-11-25 09:00:00 4.4 0 Calma 4 Sudoeste 0 912.4 0.4 59
2017-11-25 08:00:00 3.6 2 Sudeste 3 Sudeste 0 911.6 -0.5 61
2017-11-25 07:00:00 3.3 0 Calma 4 Oeste 0 911.8 -0.4 62
2017-11-25 06:00:00 3.3 2 Oeste 4 Oeste 0 912 -0.4 60
2017-11-25 05:00:00 3.2 0 Calma 3 Norte 0 912.1 -0.4 58
2017-11-25 04:00:00 3.5 0 Calma 3 Noroeste 0 912.2 -0.5 58
2017-11-25 03:00:00 3.7 0 Calma 3 Este 0 912.4 -0.2 58
2017-11-25 02:00:00 4.2 0 Calma 3 Sudoeste 0 912.5 -0.2 57
2017-11-25 01:00:00 4.8 0 Calma 8 Noroeste 0 912.7 0.2 54
2017-11-25 00:00:00 5.8 0 Calma 4 Oeste 0 912.6 0 51
2017-11-24 23:00:00 6.6 3 Sudeste 4 Noroeste 0 912.7 0.1 49
2017-11-24 22:00:00 7.4 2 Sudeste 8 Oeste 0 912.5 0.2 46
2017-11-24 21:00:00 8.8 4 Oeste 14 Sudoeste 0 912.6 0.2 42
2017-11-24 20:00:00 10.7 0 Calma 6 Norte 0 912.6 0.3 40
2017-11-24 19:00:00 12.7 0 Calma 7 Sudeste 0 912.3 0.2 35
2017-11-24 18:00:00 14.6 3 Sur 15 Oeste 0 912.4 0.2 31
2017-11-24 17:00:00 16.6 8 Oeste 21 Oeste 0 912.3 -0.5 29
2017-11-24 16:00:00 17.9 9 Oeste 26 Oeste 0 912.1 -1.1 27
2017-11-24 15:00:00 18.6 9 Sudoeste 24 Sudoeste 0 912.2 -1.8 27
2017-11-24 14:00:00 17.9 11 Oeste 24 Oeste 0 912.8 -1.3 34
2017-11-24 13:00:00 16.9 8 Sudoeste 15 Sudoeste 0 913.2 -1 42
2017-11-24 12:00:00 15.9 4 Oeste 14 Sudoeste 0 914 0.2 46
2017-11-24 11:00:00 14.6 5 Sudeste 9 Sur 0 914.1 1 35
2017-11-24 10:00:00 9.6 0 Calma 6 Oeste 0 914.2 1.4 51
2017-11-24 09:00:00 7.3 2 Norte 6 Nordeste 0 913.8 1 56
2017-11-24 08:00:00 6.9 0 Calma 7 Nordeste 0 913.1 0.4 56
2017-11-24 07:00:00 7.7 2 Nordeste 8 Nordeste 0 912.8 -0.1 53
2017-11-24 06:00:00 7.7 3 Nordeste 7 Nordeste 0 912.8 -0.1 52
2017-11-24 05:00:00 7.1 3 Oeste 10 Oeste 0 912.7 -0.5 52
2017-11-24 04:00:00 7.5 0 Calma 10 Norte 0 912.9 -0.3 50
2017-11-24 03:00:00 7.1 0 Calma 4 Este 0 912.9 -0.5 51
2017-11-24 02:00:00 6.9 0 Calma 5 Este 0 913.2 -0.1 51
2017-11-24 01:00:00 7.3 0 Calma 5 Nordeste 0 913.2 -0.3 50
2017-11-24 00:00:00 7.8 0 Calma 4 Oeste 0 913.4 0.2 48
2017-11-23 23:00:00 8.7 0 Calma 5 Sudoeste 0 913.3 0.4 46
2017-11-23 22:00:00 9.3 3 Sudoeste 10 Oeste 0 913.5 1.1 43
2017-11-23 21:00:00 10.2 0 Calma 3 Noroeste 0 913.2 1 42
2017-11-23 20:00:00 11.4 0 Calma 4 Oeste 0 912.9 1.1 39
2017-11-23 19:00:00 13 0 Calma 6 Oeste 0 912.4 0.6 34
2017-11-23 18:00:00 14.7 4 Oeste 9 Oeste 0 912.2 0.6 30
2017-11-23 17:00:00 16.4 6 Oeste 18 Oeste 0 911.8 0 27
2017-11-23 16:00:00 17.7 11 Oeste 24 Oeste 0 911.8 -0.3 24
2017-11-23 15:00:00 18.8 10 Noroeste 21 Noroeste 0 911.6 -0.8 22
2017-11-23 14:00:00 17.2 6 Sudoeste 13 Oeste 0 911.8 -0.6 26
2017-11-23 13:00:00 16.4 4 Sur 11 Sur 0 912.1 0.2 27
2017-11-23 12:00:00 14.7 4 Sur 9 Sur 0 912.4 1.2 30
2017-11-23 11:00:00 10 3 Oeste 6 Oeste 0 912.4 1.9 41
2017-11-23 10:00:00 6.1 0 Calma 4 Oeste 0 911.9 1.8 50
2017-11-23 09:00:00 3.9 2 Oeste 8 Oeste 0 911.2 1.5 55
2017-11-23 08:00:00 3.2 2 Oeste 7 Oeste 0 910.5 0.9 55
2017-11-23 07:00:00 2.9 2 Sur 4 Oeste 0 910.1 1 56
2017-11-23 06:00:00 1.9 3 Sudeste 5 Sudeste 0 909.7 0.5 59
2017-11-23 05:00:00 2 0 Calma 8 Norte 0 909.6 0.6 58
2017-11-23 04:00:00 2.7 0 Calma 4 Nordeste 0 909.1 0.1 54
2017-11-23 03:00:00 3.1 0 Calma 4 Sudoeste 0 909.2 0.2 52
2017-11-23 02:00:00 3.8 0 Calma 5 Sudeste 0 909 0.2 51
2017-11-23 01:00:00 4 2 Sudeste 5 Nordeste 0 909 0.3 49
2017-11-23 00:00:00 4 3 Sudeste 5 Oeste 0 909 0.5 47
2017-11-22 23:00:00 4.9 0 Calma 3 Nordeste 0 908.8 0.6 46
2017-11-22 22:00:00 6 0 Calma 6 Norte 0 908.7 1.1 42
2017-11-22 21:00:00 7.6 3 Norte 5 Norte 0 908.5 1.1 39
2017-11-22 20:00:00 9.4 0 Calma 5 Oeste 0 908.2 0.9 36
2017-11-22 19:00:00 11.8 0 Calma 5 Sudoeste 0 907.6 0.2 30
2017-11-22 18:00:00 14.8 2 Noroeste 10 Oeste 0 907.4 -0.3 25
2017-11-22 17:00:00 18.3 5 Oeste 12 Sudoeste 0 907.3 -1 19
2017-11-22 16:00:00 18.9 5 Oeste 12 Noroeste 0 907.4 -1.7 18
2017-11-22 15:00:00 19 4 Sudoeste 12 Sudoeste 0 907.7 -2 21
2017-11-22 14:00:00 18.1 4 Sudoeste 10 Oeste 0 908.3 -1.8 23
2017-11-22 13:00:00 15.3 3 Norte 7 Norte 0 909.1 -1 29
2017-11-22 12:00:00 12.5 3 Oeste 7 Noroeste 0 909.7 -0.5 33
2017-11-22 11:00:00 8.1 3 Norte 6 Oeste 0 910.1 0 41
2017-11-22 10:00:00 3.7 2 Sudoeste 4 Sudoeste 0 910.1 0 50
2017-11-22 09:00:00 -0.7 0 Calma 3 Sudoeste 0 910.2 0 64
2017-11-22 08:00:00 -1.1 0 Calma 4 Sudeste 0 910.1 -0.2 67
2017-11-22 07:00:00 -0.9 3 Sudeste 4 Noroeste 0 910.1 -0.5 63
2017-11-22 06:00:00 -0.8 0 Calma 5 Oeste 0 910.2 -1.2 62
2017-11-22 05:00:00 0 0 Calma 3 Sur 0 910.3 -1.4 61
2017-11-22 04:00:00 0.5 2 Sur 3 Sudeste 0 910.6 -1.5 58
2017-11-22 03:00:00 1 0 Calma 4 Sudoeste 0 911.4 -1 55
2017-11-22 02:00:00 1.7 0 Calma 4 Sudoeste 0 911.7 -0.7 53
2017-11-22 01:00:00 2.8 0 Calma 6 Norte 0 912.1 -0.5 50
2017-11-22 00:00:00 3.3 0 Calma 4 Norte 0 912.4 -0.2 49
2017-11-21 23:00:00 4.4 0 Calma 4 Nordeste 0 912.4 -0.2 45
2017-11-21 22:00:00 6 0 Calma 6 Norte 0 912.6 0.1 42
2017-11-21 21:00:00 7.7 3 Norte 6 Norte 0 912.6 0.2 38
2017-11-21 20:00:00 9.3 4 Norte 8 Norte 0 912.6 0.4 34
2017-11-21 19:00:00 12.2 3 Norte 10 Norte 0 912.5 0.6 28
2017-11-21 18:00:00 15.3 3 Norte 12 Norte 0 912.4 0.1 19
2017-11-21 17:00:00 18.7 4 Noroeste 19 Noroeste 0 912.2 -0.8 16
2017-11-21 16:00:00 19.2 9 Noroeste 18 Noroeste 0 911.9 -2 16
2017-11-21 15:00:00 19.1 9 Oeste 20 Noroeste 0 912.3 -2.4 17
2017-11-21 14:00:00 18.2 10 Noroeste 18 Noroeste 0 913 -2.2 18
2017-11-21 13:00:00 16.5 4 Norte 8 Nordeste 0 913.9 -1.2 26
2017-11-21 12:00:00 12.4 3 Sudoeste 5 Noroeste 0 914.7 -0.4 28
2017-11-21 11:00:00 8.1 2 Sur 6 Sudoeste 0 915.2 0.4 36
2017-11-21 10:00:00 3.9 2 Sur 4 Sur 0 915.1 0.6 46
2017-11-21 09:00:00 -0.7 0 Calma 3 Sudeste 0 915.1 0.6 58
2017-11-21 08:00:00 -1.3 2 Sudoeste 3 Sudoeste 0 914.8 0.3 59
2017-11-21 07:00:00 -0.9 0 Calma 3 Sudeste 0 914.5 -0.2 60
2017-11-21 06:00:00 -0.3 0 Calma 4 Sudeste 0 914.5 -0.4 57
2017-11-21 05:00:00 0.3 0 Calma 3 Sur 0 914.5 -0.3 56
2017-11-21 04:00:00 0.6 0 Calma 3 Sur 0 914.7 -0.4 54
2017-11-21 03:00:00 1.5 0 Calma 4 Sur 0 914.9 -0.4 51
2017-11-21 02:00:00 2 2 Sudoeste 4 Norte 0 914.8 -0.7 49
2017-11-21 01:00:00 3 0 Calma 4 Sudoeste 0 915.1 -0.4 47
2017-11-21 00:00:00 3.8 0 Calma 4 Oeste 0 915.3 -0.1 44
2017-11-20 23:00:00 5.1 0 Calma 7 Noroeste 0 915.5 0.5 41
2017-11-20 22:00:00 6.5 0 Calma 5 Norte 0 915.5 1.2 38
2017-11-20 21:00:00 8 2 Oeste 5 Norte 0 915.4 1.3 35
2017-11-20 20:00:00 9.8 3 Norte 13 Nordeste 0 915 1.2 30
2017-11-20 19:00:00 12.1 4 Noroeste 9 Noroeste 0 914.3 0.5 26
2017-11-20 18:00:00 15.5 3 Norte 14 Noroeste 0 914.1 0 19
2017-11-20 17:00:00 19 6 Noroeste 16 Noroeste 0 913.8 -0.6 15
2017-11-20 16:00:00 19.9 6 Noroeste 18 Noroeste 0 913.8 -1.3 14
2017-11-20 15:00:00 20.3 7 Noroeste 17 Oeste 0 914.1 -1.6 8
2017-11-20 14:00:00 19.6 7 Oeste 15 Oeste 0 914.4 -1.6 13
2017-11-20 13:00:00 16.9 4 Oeste 9 Noroeste 0 915.1 -0.6 22
2017-11-20 12:00:00 12.9 5 Noroeste 8 Noroeste 0 915.7 0.1 26
2017-11-20 11:00:00 9 3 Oeste 5 Sur 0 916 0.8 33
2017-11-20 10:00:00 4.5 3 Sur 4 Sur 0 915.7 0.6 44
2017-11-20 09:00:00 -0.6 0 Calma 3 Sur 0 915.6 0.8 57
2017-11-20 08:00:00 -0.7 0 Calma 3 Sudeste 0 915.2 0.5 59
2017-11-20 07:00:00 -0.7 0 Calma 2 Sur 0 915.1 0.6 59
2017-11-20 06:00:00 0 0 Calma 4 Noroeste 0 914.8 0.1 56
2017-11-20 05:00:00 0.2 2 Sudeste 4 Sudeste 0 914.7 0.1 55
2017-11-20 04:00:00 0.8 0 Calma 3 Sudeste 0 914.5 -0.2 56
2017-11-20 03:00:00 1.2 0 Calma 5 Sur 0 914.7 -0.2 55
2017-11-20 02:00:00 1.8 2 Sudeste 4 Sur 0 914.6 -0.2 50
2017-11-20 01:00:00 2.6 0 Calma 4 Norte 0 914.7 0.2 49
2017-11-20 00:00:00 3.7 2 Sudeste 5 Noroeste 0 914.9 0.5 44
2017-11-19 23:00:00 4.8 0 Calma 4 Norte 0 914.8 0.8 43
2017-11-19 22:00:00 6.1 0 Calma 7 Norte 0 914.5 1.2 38
2017-11-19 21:00:00 7.4 2 Sudoeste 12 Norte 0 914.4 1.6 35
2017-11-19 20:00:00 9.2 5 Norte 9 Nordeste 0 914 1.5 30
2017-11-19 19:00:00 11.8 6 Norte 10 Norte 0 913.3 1.1 26
2017-11-19 18:00:00 15 3 Norte 14 Oeste 0 912.8 0.6 24
2017-11-19 17:00:00 18.2 6 Noroeste 22 Oeste 0 912.5 -0.2 18
2017-11-19 16:00:00 19 8 Noroeste 19 Noroeste 0 912.2 -1.2 15
2017-11-19 15:00:00 19 8 Noroeste 17 Oeste 0 912.2 -1.8 16
2017-11-19 14:00:00 18.3 8 Oeste 14 Oeste 0 912.7 -1.5 23
2017-11-19 13:00:00 16.2 4 Sudoeste 8 Sur 0 913.4 -0.7 29
2017-11-19 12:00:00 12.8 3 Sudoeste 8 Norte 0 914 0.2 34
2017-11-19 11:00:00 9.3 4 Norte 12 Norte 0 914.2 0.5 42
2017-11-19 10:00:00 5.4 2 Sudoeste 4 Sur 0 914.1 0.9 50
2017-11-19 09:00:00 0.5 0 Calma 4 Sur 0 913.8 1 69
2017-11-19 08:00:00 0.1 2 Sur 4 Sudoeste 0 913.7 1.1 69
2017-11-19 07:00:00 0.6 0 Calma 4 Sur 0 913.2 0.5 67
2017-11-19 06:00:00 1 0 Calma 3 Sur 0 912.8 0.1 65
2017-11-19 05:00:00 1.6 0 Calma 4 Norte 0 912.6 -0.2 64
2017-11-19 04:00:00 2.3 0 Calma 2 Sudoeste 0 912.7 -0.3 61
2017-11-19 03:00:00 3.4 0 Calma 8 Norte 0 912.7 -0.3 58
2017-11-19 02:00:00 4.1 0 Calma 6 Norte 0 912.8 0 56
2017-11-19 01:00:00 5.1 3 Norte 7 Norte 0 913 0.4 52
2017-11-19 00:00:00 6 2 Sudoeste 7 Norte 0 913 0.8 51
2017-11-18 23:00:00 7.2 4 Norte 12 Norte 0 912.8 1 46
2017-11-18 22:00:00 7.9 2 Norte 6 Norte 0 912.6 1.3 48
2017-11-18 21:00:00 9.1 2 Sudoeste 3 Noroeste 0 912.2 1.4 47
2017-11-18 20:00:00 10.9 0 Calma 10 Norte 0 911.8 1.3 42
2017-11-18 19:00:00 13.2 5 Norte 8 Norte 0 911.3 1 36
2017-11-18 18:00:00 15.9 3 Norte 16 Noroeste 0 910.8 0.4 31
2017-11-18 17:00:00 19.1 5 Noroeste 16 Noroeste 0 910.5 -0.4 24
2017-11-18 16:00:00 19.7 8 Noroeste 19 Oeste 0 910.3 -1.3 23
2017-11-18 15:00:00 20 5 Noroeste 13 Oeste 0 910.4 -1.7 23
2017-11-18 14:00:00 19.2 5 Noroeste 9 Noroeste 0 910.9 -1.5 23
2017-11-18 13:00:00 17.2 3 Oeste 6 Sudoeste 0 911.6 -0.8 26
2017-11-18 12:00:00 14 3 Sudoeste 5 Sudoeste 0 912.1 -0.2 34
2017-11-18 11:00:00 9.7 3 Oeste 5 Oeste 0 912.4 0.4 44
2017-11-18 10:00:00 5.6 2 Sudoeste 5 Sudoeste 0 912.4 0.4 54
2017-11-18 09:00:00 0.9 2 Sur 3 Oeste 0 912.3 0.4 68
2017-11-18 08:00:00 0.6 0 Calma 3 Sudeste 0 912 0.3 71
2017-11-18 07:00:00 1.1 0 Calma 3 Oeste 0 912 0.1 69
2017-11-18 06:00:00 1.7 2 Sudeste 3 Sur 0 911.9 -0.2 66
2017-11-18 05:00:00 2.2 0 Calma 3 Sur 0 911.7 -0.5 65
2017-11-18 04:00:00 2.7 0 Calma 2 Sudoeste 0 911.9 -0.6 63
2017-11-18 03:00:00 3.2 0 Calma 3 Sur 0 912.1 -0.5 61
2017-11-18 02:00:00 4 0 Calma 3 Sur 0 912.2 -0.4 59
2017-11-18 01:00:00 4.4 0 Calma 4 Norte 0 912.5 0 57
2017-11-18 00:00:00 5.1 0 Calma 5 Norte 0 912.6 0.5 54
2017-11-17 23:00:00 6.4 2 Noroeste 5 Norte 0 912.6 0.8 51
2017-11-17 22:00:00 7.3 0 Calma 4 Norte 0 912.5 1 48
2017-11-17 21:00:00 9.1 0 Calma 3 Norte 0 912.1 1 44
2017-11-17 20:00:00 10.7 0 Calma 3 Sudoeste 0 911.8 1.1 40
2017-11-17 19:00:00 13.1 0 Calma 5 Sudoeste 0 911.5 0.9 33
2017-11-17 18:00:00 15.9 2 Oeste 10 Sudoeste 0 911.1 0.2 28
2017-11-17 17:00:00 19.3 5 Sudoeste 11 Sudoeste 0 910.7 -0.7 21
2017-11-17 16:00:00 20.6 4 Sudoeste 13 Sudoeste 0 910.6 -1.4 18
2017-11-17 15:00:00 20.1 4 Sudoeste 11 Oeste 0 910.9 -1.9 21
2017-11-17 14:00:00 19 3 Sudoeste 8 Oeste 0 911.4 -1.5 24
2017-11-17 13:00:00 16.5 4 Sudoeste 8 Sudoeste 0 912 -1 28
2017-11-17 12:00:00 13 3 Oeste 6 Sudoeste 0 912.8 -0.1 32
2017-11-17 11:00:00 9.5 4 Sur 8 Sur 0 912.9 0.4 42
2017-11-17 10:00:00 5.6 3 Oeste 6 Oeste 0 913 0.8 52
2017-11-17 09:00:00 0.9 0 Calma 3 Sudoeste 0 912.9 0.6 65
2017-11-17 08:00:00 0.4 2 Sudeste 4 Sur 0 912.5 0.1 66
2017-11-17 07:00:00 0.7 2 Sudeste 6 Norte 0 912.2 -0.3 65
2017-11-17 06:00:00 1.1 0 Calma 3 Sur 0 912.3 -0.3 65
2017-11-17 05:00:00 1.5 2 Sudoeste 4 Sudoeste 0 912.4 -0.2 63
2017-11-17 04:00:00 2.3 0 Calma 4 Norte 0 912.5 -0.4 59
2017-11-17 03:00:00 2.9 2 Nordeste 3 Sur 0 912.6 -0.4 58
2017-11-17 02:00:00 3.7 0 Calma 6 Norte 0 912.6 -0.2 55
2017-11-17 01:00:00 4.9 0 Calma 5 Norte 0 912.9 0.4 53
2017-11-17 00:00:00 5.7 0 Calma 8 Norte 0 913 0.9 50